createdAt,value
2023-03-29T00:02:41.336Z,51.23
2023-03-29T00:05:38.925Z,51.42
2023-03-29T00:08:38.260Z,51.63
2023-03-29T00:11:36.027Z,51.84
2023-03-29T00:14:33.473Z,52.06
2023-03-29T00:17:31.371Z,52.26
2023-03-29T00:20:29.518Z,52.39
2023-03-29T00:23:27.397Z,52.67
2023-03-29T00:26:24.879Z,53.00
2023-03-29T00:29:22.616Z,53.24
2023-03-29T00:32:20.217Z,53.47
2023-03-29T00:35:17.669Z,53.58
2023-03-29T00:38:15.279Z,53.72
2023-03-29T00:41:12.777Z,53.84
2023-03-29T00:44:11.835Z,54.03
2023-03-29T00:47:09.295Z,54.17
2023-03-29T00:50:07.314Z,54.28
2023-03-29T00:53:05.001Z,54.46
2023-03-29T00:56:02.791Z,54.72
2023-03-29T00:59:00.687Z,54.90
2023-03-29T01:01:58.758Z,55.08
2023-03-29T01:04:56.667Z,55.29
2023-03-29T01:07:58.243Z,55.52
2023-03-29T01:10:56.283Z,55.67
2023-03-29T01:13:54.005Z,55.90
2023-03-29T01:16:52.052Z,56.08
2023-03-29T01:19:50.572Z,56.30
2023-03-29T01:22:48.019Z,56.52
2023-03-29T01:25:45.873Z,56.67
2023-03-29T01:28:43.332Z,56.74
2023-03-29T01:31:41.067Z,56.84
2023-03-29T01:34:38.529Z,56.94
2023-03-29T01:37:36.600Z,57.10
2023-03-29T01:40:34.583Z,57.30
2023-03-29T01:43:32.064Z,57.40
2023-03-29T01:46:29.690Z,57.49
2023-03-29T01:49:27.234Z,57.58
2023-03-29T01:52:24.888Z,57.68
2023-03-29T01:55:22.401Z,57.83
2023-03-29T01:58:20.009Z,57.97
2023-03-29T02:01:18.112Z,58.10
2023-03-29T02:04:15.640Z,58.27
2023-03-29T02:07:13.431Z,58.41
2023-03-29T02:10:11.326Z,58.53
2023-03-29T02:13:09.004Z,58.61
2023-03-29T02:16:07.238Z,58.69
2023-03-29T02:19:05.029Z,58.76
2023-03-29T02:22:04.417Z,58.87
2023-03-29T02:25:01.881Z,58.94
2023-03-29T02:27:59.664Z,59.00
2023-03-29T02:30:57.163Z,59.00
2023-03-29T02:33:54.956Z,59.08
2023-03-29T02:36:52.763Z,59.12
2023-03-29T02:39:50.199Z,59.28
2023-03-29T02:42:47.806Z,59.43
2023-03-29T02:45:45.263Z,59.57
2023-03-29T02:48:43.496Z,59.69
2023-03-29T02:51:40.926Z,59.76
2023-03-29T02:54:43.818Z,59.84
2023-03-29T02:57:42.748Z,59.90
2023-03-29T03:00:41.146Z,59.88
2023-03-29T03:03:39.000Z,59.88
2023-03-29T03:06:36.676Z,59.89
2023-03-29T03:09:35.929Z,59.88
2023-03-29T03:12:33.445Z,59.97
2023-03-29T03:15:31.496Z,60.03
2023-03-29T03:18:28.930Z,60.10
2023-03-29T03:21:28.450Z,60.12
2023-03-29T03:24:26.129Z,60.19
2023-03-29T03:27:24.050Z,60.20
2023-03-29T03:30:22.236Z,60.19
2023-03-29T03:33:19.965Z,60.13
2023-03-29T03:36:17.613Z,60.23
2023-03-29T03:39:15.064Z,60.32
2023-03-29T03:42:12.698Z,60.36
2023-03-29T03:45:11.529Z,60.25
2023-03-29T03:48:09.908Z,60.24
2023-03-29T03:51:07.550Z,60.33
2023-03-29T03:54:05.632Z,60.39
2023-03-29T03:57:04.158Z,60.43
2023-03-29T04:00:01.643Z,60.47
2023-03-29T04:02:59.567Z,60.34
2023-03-29T04:05:59.606Z,60.30
2023-03-29T04:08:57.358Z,60.30
2023-03-29T04:11:55.155Z,60.36
2023-03-29T04:14:52.602Z,60.45
2023-03-29T04:17:50.380Z,60.51
2023-03-29T04:20:47.922Z,60.58
2023-03-29T04:23:46.896Z,60.61
2023-03-29T04:26:44.370Z,60.70
2023-03-29T04:29:45.106Z,60.78
2023-03-29T04:32:42.866Z,60.88
2023-03-29T04:35:40.360Z,60.97
2023-03-29T04:38:38.251Z,61.01
2023-03-29T04:41:35.961Z,61.08
2023-03-29T04:44:34.031Z,61.17
2023-03-29T04:47:31.686Z,61.26
2023-03-29T04:50:29.603Z,61.29
2023-03-29T04:53:27.066Z,61.30
2023-03-29T04:56:24.727Z,61.41
2023-03-29T04:59:22.474Z,61.58
2023-03-29T05:02:19.917Z,61.71
2023-03-29T05:05:17.681Z,61.78
2023-03-29T05:08:15.117Z,61.80
2023-03-29T05:11:13.811Z,61.80
2023-03-29T05:14:11.257Z,61.67
2023-03-29T05:17:08.899Z,61.53
2023-03-29T05:20:09.707Z,61.41
2023-03-29T05:23:07.171Z,61.37
2023-03-29T05:26:05.642Z,61.33
2023-03-29T05:29:04.543Z,61.35
2023-03-29T05:32:02.263Z,61.39
2023-03-29T05:34:59.756Z,61.40
2023-03-29T05:37:57.455Z,61.40
2023-03-29T05:40:55.013Z,61.40
2023-03-29T05:43:52.634Z,61.40
2023-03-29T05:46:50.570Z,61.46
2023-03-29T05:49:48.050Z,61.45
2023-03-29T05:52:46.282Z,61.46
2023-03-29T05:55:43.767Z,61.40
2023-03-29T05:58:41.408Z,61.41
2023-03-29T06:01:40.146Z,61.23
2023-03-29T06:04:37.901Z,61.08
2023-03-29T06:07:36.449Z,60.89
2023-03-29T06:10:36.784Z,60.46
2023-03-29T06:13:35.060Z,60.22
2023-03-29T06:16:32.589Z,59.86
2023-03-29T06:19:30.773Z,59.49
2023-03-29T06:22:28.535Z,59.15
2023-03-29T06:25:26.446Z,58.69
2023-03-29T06:28:24.220Z,58.35
2023-03-29T06:31:22.204Z,57.61
2023-03-29T06:34:20.052Z,57.03
2023-03-29T06:37:17.657Z,56.40
2023-03-29T06:40:15.470Z,55.80
2023-03-29T06:43:12.989Z,54.83
2023-03-29T06:46:12.544Z,53.95
2023-03-29T06:49:10.389Z,52.92
2023-03-29T06:52:07.875Z,52.07
2023-03-29T06:55:07.842Z,51.33
2023-03-29T06:58:05.375Z,50.58
2023-03-29T07:01:04.344Z,50.12
2023-03-29T07:04:05.011Z,49.52
2023-03-29T07:07:03.878Z,49.12
2023-03-29T07:10:01.974Z,49.03
2023-03-29T07:12:59.804Z,48.88
2023-03-29T07:15:58.441Z,48.28
2023-03-29T07:18:55.908Z,48.03
2023-03-29T07:21:54.858Z,48.07
2023-03-29T07:24:52.311Z,47.78
2023-03-29T07:27:50.092Z,47.59
2023-03-29T07:30:47.630Z,47.30
2023-03-29T07:33:45.403Z,47.03
2023-03-29T07:36:44.328Z,46.85
2023-03-29T07:39:41.834Z,46.91
2023-03-29T07:42:39.594Z,46.89
2023-03-29T07:45:37.201Z,46.90
2023-03-29T07:48:37.334Z,46.81
2023-03-29T07:51:36.768Z,46.56
2023-03-29T07:54:34.823Z,46.46
2023-03-29T07:57:32.345Z,46.23
2023-03-29T08:00:30.133Z,46.26
2023-03-29T08:03:28.984Z,45.90
2023-03-29T08:06:27.894Z,45.67
2023-03-29T08:09:26.108Z,45.69
2023-03-29T08:12:25.042Z,45.48
2023-03-29T08:15:23.076Z,45.28
2023-03-29T08:18:20.846Z,45.09
2023-03-29T08:21:18.586Z,44.81
2023-03-29T08:24:16.070Z,44.29
2023-03-29T08:27:13.784Z,43.97
2023-03-29T08:30:13.431Z,43.96
2023-03-29T08:33:11.000Z,43.88
2023-03-29T08:36:08.781Z,43.87
2023-03-29T08:39:06.271Z,43.60
2023-03-29T08:42:04.096Z,43.09
2023-03-29T08:45:01.560Z,42.84
2023-03-29T08:47:59.360Z,42.76
2023-03-29T08:50:57.207Z,42.75
2023-03-29T08:53:54.683Z,42.66
2023-03-29T08:56:52.459Z,42.53
2023-03-29T08:59:49.942Z,42.28
2023-03-29T09:02:47.705Z,42.23
2023-03-29T09:05:45.508Z,42.20
2023-03-29T09:08:43.297Z,42.06
2023-03-29T09:11:40.976Z,41.76
2023-03-29T09:14:38.711Z,41.71
2023-03-29T09:17:36.421Z,41.88
2023-03-29T09:20:33.893Z,41.89
2023-03-29T09:23:31.697Z,41.67
2023-03-29T09:26:29.530Z,41.90
2023-03-29T09:29:28.254Z,42.03
2023-03-29T09:32:27.087Z,41.82
2023-03-29T09:35:24.632Z,41.63
2023-03-29T09:38:22.388Z,41.62
2023-03-29T09:41:20.188Z,41.59
2023-03-29T09:44:30.209Z,41.69
2023-03-29T09:47:29.603Z,41.73
2023-03-29T09:50:31.489Z,41.75
2023-03-29T09:53:29.921Z,41.72
2023-03-29T09:56:27.451Z,41.80
2023-03-29T09:59:25.056Z,41.84
2023-03-29T10:02:22.552Z,41.75
2023-03-29T10:05:20.310Z,41.70
2023-03-29T10:08:19.458Z,41.76
2023-03-29T10:11:17.680Z,41.97
2023-03-29T10:14:15.465Z,41.99
2023-03-29T10:17:12.902Z,42.09
2023-03-29T10:20:10.892Z,42.23
2023-03-29T10:23:08.358Z,42.30
2023-03-29T10:26:05.977Z,42.14
2023-03-29T10:29:03.706Z,42.12
2023-03-29T10:32:01.207Z,42.11
2023-03-29T10:34:58.960Z,42.19
2023-03-29T10:37:56.473Z,41.73
2023-03-29T10:40:54.249Z,41.63
2023-03-29T10:43:51.752Z,41.81
2023-03-29T10:46:49.512Z,41.59
2023-03-29T10:49:48.122Z,41.39
2023-03-29T10:52:45.721Z,41.22
2023-03-29T10:55:43.985Z,41.06
2023-03-29T10:58:41.880Z,40.81
2023-03-29T11:01:39.647Z,40.57
2023-03-29T11:04:37.810Z,40.81
2023-03-29T11:07:35.230Z,40.82
2023-03-29T11:10:32.943Z,40.92
2023-03-29T11:13:30.382Z,41.38
2023-03-29T11:16:28.286Z,41.92
2023-03-29T11:19:26.148Z,42.18
2023-03-29T11:22:24.288Z,42.52
2023-03-29T11:25:21.709Z,42.96
2023-03-29T11:28:19.340Z,43.55
2023-03-29T11:31:17.122Z,44.12
2023-03-29T11:34:14.594Z,44.61
2023-03-29T11:37:12.337Z,44.79
2023-03-29T11:40:09.812Z,45.01
2023-03-29T11:43:07.892Z,45.30
2023-03-29T11:46:05.394Z,45.23
2023-03-29T11:49:03.186Z,45.22
2023-03-29T11:52:00.953Z,45.39
2023-03-29T11:54:58.462Z,45.72
2023-03-29T11:57:57.080Z,46.28
2023-03-29T12:00:55.513Z,47.03
2023-03-29T12:03:54.931Z,48.08
2023-03-29T12:06:52.595Z,49.03
2023-03-29T12:09:51.770Z,48.88
2023-03-29T12:12:49.266Z,49.22
2023-03-29T12:15:46.898Z,49.47
2023-03-29T12:18:45.646Z,49.74
2023-03-29T12:21:43.083Z,49.88
2023-03-29T12:24:40.730Z,49.93
2023-03-29T12:27:38.188Z,49.97
2023-03-29T12:30:35.879Z,49.92
2023-03-29T12:33:33.323Z,49.92
2023-03-29T12:36:31.442Z,50.15
2023-03-29T12:39:28.893Z,50.46
2023-03-29T12:42:26.704Z,50.78
2023-03-29T12:45:24.431Z,51.00
2023-03-29T12:48:22.436Z,51.15
2023-03-29T12:51:20.062Z,51.31
2023-03-29T12:54:17.538Z,51.43
2023-03-29T12:57:15.244Z,51.66
2023-03-29T13:00:12.981Z,51.80
2023-03-29T13:03:11.253Z,51.88
2023-03-29T13:06:09.458Z,52.10
2023-03-29T13:09:07.308Z,52.25
2023-03-29T13:12:05.068Z,52.45
2023-03-29T13:15:02.538Z,52.66
2023-03-29T13:18:00.254Z,52.83
2023-03-29T13:20:57.869Z,53.10
2023-03-29T13:23:55.600Z,53.29
2023-03-29T13:26:53.071Z,53.43
2023-03-29T13:29:51.065Z,53.64
2023-03-29T13:32:49.156Z,53.83
2023-03-29T13:35:47.065Z,54.00
2023-03-29T13:38:44.874Z,54.18
2023-03-29T13:41:42.700Z,54.33
2023-03-29T13:44:41.960Z,54.53
2023-03-29T13:47:39.440Z,54.69
2023-03-29T13:50:37.147Z,54.77
2023-03-29T13:53:35.353Z,54.82
2023-03-29T13:56:32.931Z,54.96
2023-03-29T13:59:30.568Z,55.00
2023-03-29T14:02:28.091Z,54.84
2023-03-29T14:05:25.995Z,54.73
2023-03-29T14:08:23.572Z,54.76
2023-03-29T14:11:21.531Z,54.72
2023-03-29T14:14:19.435Z,54.65
2023-03-29T14:17:16.875Z,54.54
2023-03-29T14:20:15.469Z,54.44
2023-03-29T14:23:15.690Z,54.26
2023-03-29T14:26:13.944Z,54.01
2023-03-29T14:29:11.581Z,53.84
2023-03-29T14:32:09.060Z,53.82
2023-03-29T14:35:06.927Z,53.80
2023-03-29T14:38:04.817Z,53.85
2023-03-29T14:41:02.686Z,53.88
2023-03-29T14:44:00.198Z,53.88
2023-03-29T14:46:58.185Z,53.90
2023-03-29T14:49:57.617Z,53.85
2023-03-29T14:52:55.057Z,53.84
2023-03-29T14:55:53.019Z,53.90
2023-03-29T14:58:52.093Z,53.90
2023-03-29T15:01:49.820Z,53.98
2023-03-29T15:04:47.913Z,54.17
2023-03-29T15:07:48.465Z,54.35
2023-03-29T15:10:46.205Z,54.61
2023-03-29T15:13:43.659Z,54.76
2023-03-29T15:16:41.517Z,54.96
2023-03-29T15:19:38.970Z,55.13
2023-03-29T15:22:36.637Z,55.38
2023-03-29T15:25:34.129Z,55.59
2023-03-29T15:28:34.536Z,55.89
2023-03-29T15:31:33.865Z,56.18
2023-03-29T15:34:31.452Z,56.53
2023-03-29T15:37:29.065Z,56.75
2023-03-29T15:40:26.539Z,56.90
2023-03-29T15:43:24.786Z,57.10
2023-03-29T15:46:22.400Z,57.27
2023-03-29T15:49:20.598Z,57.42
2023-03-29T15:52:18.228Z,57.58
2023-03-29T15:55:15.702Z,57.64
2023-03-29T15:58:13.550Z,57.81
2023-03-29T16:01:13.259Z,57.92
2023-03-29T16:04:11.060Z,58.08
2023-03-29T16:07:08.908Z,58.26
2023-03-29T16:10:06.583Z,58.47
2023-03-29T16:13:04.330Z,58.71
2023-03-29T16:16:02.012Z,58.93
2023-03-29T16:18:59.918Z,59.31
2023-03-29T16:21:57.530Z,59.65
2023-03-29T16:24:55.140Z,59.98
2023-03-29T16:27:52.898Z,60.32
2023-03-29T16:30:50.357Z,60.73
2023-03-29T16:33:48.118Z,61.17
2023-03-29T16:36:45.568Z,61.57
2023-03-29T16:39:43.839Z,61.88
2023-03-29T16:42:42.599Z,62.22
2023-03-29T16:45:40.083Z,62.61
2023-03-29T16:48:38.368Z,62.86
2023-03-29T16:51:36.067Z,63.13
2023-03-29T16:54:35.209Z,63.30
2023-03-29T16:57:32.747Z,63.63
2023-03-29T17:00:30.838Z,63.85
2023-03-29T17:03:28.823Z,64.11
2023-03-29T17:06:26.767Z,64.31
2023-03-29T17:09:24.576Z,64.35
2023-03-29T17:12:22.050Z,64.51
2023-03-29T17:15:19.501Z,64.68
2023-03-29T17:18:16.972Z,64.79
2023-03-29T17:21:15.086Z,64.91
2023-03-29T17:24:14.477Z,65.03
2023-03-29T17:27:11.958Z,65.16
2023-03-29T17:30:09.571Z,65.29
2023-03-29T17:33:08.692Z,65.41
2023-03-29T17:36:07.659Z,65.57
2023-03-29T17:39:06.449Z,65.66
2023-03-29T17:42:04.390Z,65.69
2023-03-29T17:45:02.250Z,65.66
2023-03-29T17:48:00.548Z,65.80
2023-03-29T17:51:00.810Z,65.80
2023-03-29T17:53:58.960Z,65.71
2023-03-29T17:56:58.085Z,65.56
2023-03-29T17:59:55.734Z,65.60
2023-03-29T18:02:54.978Z,65.61
2023-03-29T18:05:53.403Z,65.57
2023-03-29T18:08:53.242Z,65.47
2023-03-29T18:11:53.063Z,65.24
2023-03-29T18:14:51.443Z,65.17
2023-03-29T18:17:49.828Z,65.13
2023-03-29T18:20:47.477Z,65.15
2023-03-29T18:23:47.949Z,65.10
2023-03-29T18:26:47.673Z,65.18
2023-03-29T18:29:45.884Z,65.27
2023-03-29T18:32:44.040Z,65.23
2023-03-29T18:35:42.534Z,65.29
2023-03-29T18:38:41.192Z,65.32
2023-03-29T18:41:41.463Z,65.36
2023-03-29T18:44:49.320Z,65.38
2023-03-29T18:47:49.194Z,65.50
2023-03-29T18:50:47.083Z,65.32
2023-03-29T18:53:45.550Z,65.34
2023-03-29T18:56:43.734Z,65.42
2023-03-29T18:59:43.527Z,65.54
2023-03-29T19:02:46.912Z,65.78
2023-03-29T19:05:47.386Z,66.07
2023-03-29T19:08:46.349Z,66.38
2023-03-29T19:11:44.814Z,66.65
2023-03-29T19:14:45.487Z,66.84
2023-03-29T19:17:43.754Z,67.04
2023-03-29T19:20:42.359Z,67.17
2023-03-29T19:23:40.288Z,67.28
2023-03-29T19:26:38.896Z,67.38
2023-03-29T19:29:37.489Z,67.55
2023-03-29T19:32:35.709Z,67.51
2023-03-29T19:35:35.777Z,67.53
2023-03-29T19:38:33.888Z,67.57
2023-03-29T19:41:36.137Z,67.67
2023-03-29T19:44:35.970Z,67.70
2023-03-29T19:47:35.584Z,67.71
2023-03-29T19:50:36.497Z,67.71
2023-03-29T19:53:38.456Z,67.78
2023-03-29T19:56:36.973Z,67.78
2023-03-29T19:59:35.460Z,67.63
2023-03-29T20:02:34.835Z,67.69
2023-03-29T20:05:33.722Z,67.63
2023-03-29T20:08:31.836Z,67.62
2023-03-29T20:11:30.337Z,67.63
2023-03-29T20:14:29.250Z,67.63
2023-03-29T20:17:27.244Z,67.70
2023-03-29T20:20:24.937Z,67.65
2023-03-29T20:23:22.562Z,67.65
2023-03-29T20:26:20.023Z,67.56
2023-03-29T20:29:18.126Z,67.59
2023-03-29T20:32:15.548Z,67.69
2023-03-29T20:35:13.221Z,67.70
2023-03-29T20:38:12.062Z,67.72
2023-03-29T20:41:10.901Z,67.77
2023-03-29T20:44:08.605Z,67.81
2023-03-29T20:47:08.295Z,67.80
2023-03-29T20:50:08.225Z,67.91
2023-03-29T20:53:06.416Z,68.01
2023-03-29T20:56:07.045Z,68.16
2023-03-29T20:59:04.497Z,68.31
2023-03-29T21:02:02.236Z,68.47
2023-03-29T21:05:00.601Z,68.57
2023-03-29T21:07:58.088Z,68.64
2023-03-29T21:10:56.554Z,68.79
2023-03-29T21:13:54.063Z,68.81
2023-03-29T21:16:51.927Z,68.86
2023-03-29T21:19:49.382Z,68.93
2023-03-29T21:22:47.111Z,69.06
2023-03-29T21:25:47.464Z,69.15
2023-03-29T21:28:44.926Z,69.18
2023-03-29T21:31:42.641Z,69.21
2023-03-29T21:34:40.101Z,69.30
2023-03-29T21:37:37.797Z,69.38
2023-03-29T21:40:35.243Z,69.43
2023-03-29T21:43:33.040Z,69.51
2023-03-29T21:46:30.575Z,69.57
2023-03-29T21:49:28.296Z,69.61
2023-03-29T21:52:25.751Z,69.60
2023-03-29T21:55:23.535Z,69.65
2023-03-29T21:58:21.022Z,69.69
2023-03-29T22:01:18.793Z,69.70
2023-03-29T22:04:29.065Z,69.74
2023-03-29T22:07:30.977Z,69.79
2023-03-29T22:10:29.865Z,69.89
2023-03-29T22:13:27.315Z,69.90
2023-03-29T22:16:26.101Z,69.93
2023-03-29T22:19:23.607Z,69.95
2023-03-29T22:22:22.070Z,70.00
2023-03-29T22:25:19.810Z,70.04
2023-03-29T22:28:17.246Z,70.12
2023-03-29T22:31:15.036Z,70.22
2023-03-29T22:34:12.500Z,70.30
2023-03-29T22:37:10.181Z,70.28
2023-03-29T22:40:09.802Z,70.38
2023-03-29T22:43:07.465Z,70.43
2023-03-29T22:46:05.300Z,70.50
2023-03-29T22:49:02.784Z,70.50
2023-03-29T22:52:01.647Z,70.57
2023-03-29T22:54:59.133Z,70.60
2023-03-29T22:57:56.767Z,70.61
2023-03-29T23:00:54.308Z,70.62
2023-03-29T23:03:52.044Z,70.61
2023-03-29T23:06:49.500Z,70.70
2023-03-29T23:09:47.245Z,70.68
2023-03-29T23:12:45.010Z,70.68
2023-03-29T23:15:42.821Z,70.71
2023-03-29T23:18:40.662Z,70.74
2023-03-29T23:21:38.528Z,70.87
2023-03-29T23:24:36.126Z,70.89
2023-03-29T23:27:34.690Z,70.91
2023-03-29T23:30:32.331Z,71.00
2023-03-29T23:33:31.011Z,71.11
2023-03-29T23:36:31.271Z,71.18
2023-03-29T23:39:28.927Z,71.22
2023-03-29T23:42:26.366Z,71.30
2023-03-29T23:45:27.006Z,71.38
2023-03-29T23:48:24.946Z,71.41
2023-03-29T23:51:23.610Z,71.53
2023-03-29T23:54:21.123Z,71.57
2023-03-29T23:57:18.988Z,71.60
